sensor_id;sensor_type;location;lat;lon;timestamp;P1;durP1;ratioP1;P2;durP2;ratioP2
59052;SDS011;44843;44.728;10.396;2022-07-01T00:01:58;0.50;;;0.50;;
59052;SDS011;44843;44.728;10.396;2022-07-01T00:04:23;2.10;;;0.60;;
59052;SDS011;44843;44.728;10.396;2022-07-01T00:06:55;1.08;;;0.50;;
59052;SDS011;44843;44.728;10.396;2022-07-01T00:09:21;1.45;;;0.70;;
59052;SDS011;44843;44.728;10.396;2022-07-01T00:11:46;4.07;;;0.88;;
59052;SDS011;44843;44.728;10.396;2022-07-01T00:14:12;0.70;;;0.70;;
59052;SDS011;44843;44.728;10.396;2022-07-01T00:16:38;1.00;;;0.60;;
59052;SDS011;44843;44.728;10.396;2022-07-01T00:19:03;2.08;;;0.90;;
59052;SDS011;44843;44.728;10.396;2022-07-01T00:21:30;0.60;;;0.60;;
59052;SDS011;44843;44.728;10.396;2022-07-01T00:23:55;1.15;;;0.60;;
59052;SDS011;44843;44.728;10.396;2022-07-01T00:26:20;0.77;;;0.70;;
59052;SDS011;44843;44.728;10.396;2022-07-01T00:28:46;2.13;;;0.70;;
59052;SDS011;44843;44.728;10.396;2022-07-01T00:31:11;1.85;;;0.80;;
59052;SDS011;44843;44.728;10.396;2022-07-01T00:33:37;0.60;;;0.60;;
59052;SDS011;44843;44.728;10.396;2022-07-01T00:36:02;0.50;;;0.45;;
59052;SDS011;44843;44.728;10.396;2022-07-01T00:38:28;1.15;;;0.70;;
59052;SDS011;44843;44.728;10.396;2022-07-01T00:40:54;1.15;;;0.60;;
59052;SDS011;44843;44.728;10.396;2022-07-01T00:43:20;2.30;;;0.60;;
59052;SDS011;44843;44.728;10.396;2022-07-01T00:45:49;0.65;;;0.65;;
59052;SDS011;44843;44.728;10.396;2022-07-01T00:48:15;0.85;;;0.80;;
59052;SDS011;44843;44.728;10.396;2022-07-01T00:50:41;0.80;;;0.70;;
59052;SDS011;44843;44.728;10.396;2022-07-01T00:53:07;1.95;;;0.68;;
59052;SDS011;44843;44.728;10.396;2022-07-01T00:55:32;1.13;;;1.02;;
59052;SDS011;44843;44.728;10.396;2022-07-01T00:57:58;0.85;;;0.60;;
59052;SDS011;44843;44.728;10.396;2022-07-01T01:00:24;2.17;;;0.70;;
59052;SDS011;44843;44.728;10.396;2022-07-01T01:02:51;0.77;;;0.63;;
59052;SDS011;44843;44.728;10.396;2022-07-01T01:05:17;1.10;;;0.60;;
59052;SDS011;44843;44.728;10.396;2022-07-01T01:07:43;1.23;;;0.57;;
59052;SDS011;44843;44.728;10.396;2022-07-01T01:10:09;2.00;;;0.70;;
59052;SDS011;44843;44.728;10.396;2022-07-01T01:12:35;0.85;;;0.60;;
59052;SDS011;44843;44.728;10.396;2022-07-01T01:15:01;1.13;;;0.70;;
59052;SDS011;44843;44.728;10.396;2022-07-01T01:17:26;1.30;;;0.77;;
59052;SDS011;44843;44.728;10.396;2022-07-01T01:19:52;1.10;;;0.70;;
59052;SDS011;44843;44.728;10.396;2022-07-01T01:22:19;1.00;;;0.90;;
59052;SDS011;44843;44.728;10.396;2022-07-01T01:24:45;2.42;;;1.00;;
59052;SDS011;44843;44.728;10.396;2022-07-01T01:27:11;1.90;;;0.80;;
59052;SDS011;44843;44.728;10.396;2022-07-01T01:29:37;4.05;;;0.90;;
59052;SDS011;44843;44.728;10.396;2022-07-01T01:32:04;1.02;;;0.90;;
59052;SDS011;44843;44.728;10.396;2022-07-01T01:34:33;1.08;;;0.80;;
59052;SDS011;44843;44.728;10.396;2022-07-01T01:37:02;2.55;;;1.00;;
59052;SDS011;44843;44.728;10.396;2022-07-01T01:39:28;1.05;;;0.93;;
59052;SDS011;44843;44.728;10.396;2022-07-01T01:41:53;2.25;;;1.00;;
59052;SDS011;44843;44.728;10.396;2022-07-01T01:44:18;0.70;;;0.70;;
59052;SDS011;44843;44.728;10.396;2022-07-01T01:46:44;1.02;;;0.93;;
59052;SDS011;44843;44.728;10.396;2022-07-01T01:49:09;0.70;;;0.70;;
59052;SDS011;44843;44.728;10.396;2022-07-01T01:51:35;0.85;;;0.55;;
59052;SDS011;44843;44.728;10.396;2022-07-01T01:54:01;0.65;;;0.63;;
59052;SDS011;44843;44.728;10.396;2022-07-01T01:56:27;3.80;;;1.35;;
59052;SDS011;44843;44.728;10.396;2022-07-01T01:58:53;1.05;;;0.90;;
59052;SDS011;44843;44.728;10.396;2022-07-01T02:01:18;1.35;;;0.95;;
59052;SDS011;44843;44.728;10.396;2022-07-01T02:03:45;1.27;;;0.80;;
59052;SDS011;44843;44.728;10.396;2022-07-01T02:06:12;1.48;;;0.90;;
59052;SDS011;44843;44.728;10.396;2022-07-01T02:08:39;1.63;;;0.68;;
59052;SDS011;44843;44.728;10.396;2022-07-01T02:11:05;0.82;;;0.80;;
59052;SDS011;44843;44.728;10.396;2022-07-01T02:13:32;1.20;;;0.80;;
59052;SDS011;44843;44.728;10.396;2022-07-01T02:15:58;1.55;;;1.00;;
59052;SDS011;44843;44.728;10.396;2022-07-01T02:18:23;1.98;;;0.77;;
59052;SDS011;44843;44.728;10.396;2022-07-01T02:20:49;0.93;;;0.90;;
59052;SDS011;44843;44.728;10.396;2022-07-01T02:23:15;1.00;;;0.90;;
59052;SDS011;44843;44.728;10.396;2022-07-01T02:25:41;4.35;;;0.88;;
59052;SDS011;44843;44.728;10.396;2022-07-01T02:28:07;0.90;;;0.88;;
59052;SDS011;44843;44.728;10.396;2022-07-01T02:30:33;0.70;;;0.70;;
59052;SDS011;44843;44.728;10.396;2022-07-01T02:33:03;1.90;;;0.90;;
59052;SDS011;44843;44.728;10.396;2022-07-01T02:35:30;1.55;;;0.70;;
59052;SDS011;44843;44.728;10.396;2022-07-01T02:37:56;2.20;;;0.98;;
59052;SDS011;44843;44.728;10.396;2022-07-01T02:40:21;3.67;;;2.50;;
59052;SDS011;44843;44.728;10.396;2022-07-01T02:42:47;2.92;;;1.70;;
59052;SDS011;44843;44.728;10.396;2022-07-01T02:45:12;8.90;;;1.45;;
59052;SDS011;44843;44.728;10.396;2022-07-01T02:47:38;1.85;;;1.00;;
59052;SDS011;44843;44.728;10.396;2022-07-01T02:50:09;1.02;;;0.90;;
59052;SDS011;44843;44.728;10.396;2022-07-01T02:52:35;2.28;;;1.00;;
59052;SDS011;44843;44.728;10.396;2022-07-01T02:55:02;2.05;;;1.30;;
59052;SDS011;44843;44.728;10.396;2022-07-01T02:57:29;1.92;;;1.00;;
59052;SDS011;44843;44.728;10.396;2022-07-01T02:59:55;0.90;;;0.80;;
59052;SDS011;44843;44.728;10.396;2022-07-01T03:02:20;2.17;;;1.00;;
59052;SDS011;44843;44.728;10.396;2022-07-01T03:04:47;1.88;;;0.95;;
59052;SDS011;44843;44.728;10.396;2022-07-01T03:07:13;1.70;;;0.90;;
59052;SDS011;44843;44.728;10.396;2022-07-01T03:09:39;1.13;;;0.77;;
59052;SDS011;44843;44.728;10.396;2022-07-01T03:12:05;1.50;;;0.80;;
59052;SDS011;44843;44.728;10.396;2022-07-01T03:14:53;1.27;;;0.55;;
59052;SDS011;44843;44.728;10.396;2022-07-01T03:17:20;1.00;;;0.63;;
59052;SDS011;44843;44.728;10.396;2022-07-01T03:19:46;1.70;;;0.73;;
59052;SDS011;44843;44.728;10.396;2022-07-01T03:22:12;1.80;;;0.60;;
59052;SDS011;44843;44.728;10.396;2022-07-01T03:24:38;0.85;;;0.60;;
59052;SDS011;44843;44.728;10.396;2022-07-01T03:27:03;0.80;;;0.65;;
59052;SDS011;44843;44.728;10.396;2022-07-01T03:29:29;3.80;;;1.05;;
59052;SDS011;44843;44.728;10.396;2022-07-01T03:31:55;1.30;;;0.80;;
59052;SDS011;44843;44.728;10.396;2022-07-01T03:34:21;1.15;;;0.80;;
59052;SDS011;44843;44.728;10.396;2022-07-01T03:36:46;0.80;;;0.70;;
59052;SDS011;44843;44.728;10.396;2022-07-01T03:39:12;1.20;;;0.70;;
59052;SDS011;44843;44.728;10.396;2022-07-01T03:41:37;2.35;;;0.70;;
59052;SDS011;44843;44.728;10.396;2022-07-01T03:44:02;1.27;;;0.70;;
59052;SDS011;44843;44.728;10.396;2022-07-01T03:46:28;1.40;;;1.00;;
59052;SDS011;44843;44.728;10.396;2022-07-01T03:48:57;1.50;;;0.80;;
59052;SDS011;44843;44.728;10.396;2022-07-01T03:51:22;0.80;;;0.70;;
59052;SDS011;44843;44.728;10.396;2022-07-01T03:53:48;2.73;;;0.80;;
59052;SDS011;44843;44.728;10.396;2022-07-01T03:56:31;2.70;;;1.08;;
59052;SDS011;44843;44.728;10.396;2022-07-01T03:58:57;0.80;;;0.70;;
59052;SDS011;44843;44.728;10.396;2022-07-01T04:01:22;1.13;;;0.80;;
59052;SDS011;44843;44.728;10.396;2022-07-01T04:06:13;3.28;;;0.70;;
59052;SDS011;44843;44.728;10.396;2022-07-01T04:08:38;0.70;;;0.63;;
59052;SDS011;44843;44.728;10.396;2022-07-01T04:11:04;0.90;;;0.70;;
59052;SDS011;44843;44.728;10.396;2022-07-01T04:13:33;3.53;;;0.73;;
59052;SDS011;44843;44.728;10.396;2022-07-01T04:15:59;1.20;;;0.80;;
59052;SDS011;44843;44.728;10.396;2022-07-01T04:20:50;2.22;;;0.77;;
59052;SDS011;44843;44.728;10.396;2022-07-01T04:23:34;3.47;;;0.80;;
59052;SDS011;44843;44.728;10.396;2022-07-01T04:26:00;2.00;;;0.77;;
59052;SDS011;44843;44.728;10.396;2022-07-01T04:28:26;1.17;;;1.00;;
59052;SDS011;44843;44.728;10.396;2022-07-01T04:30:52;1.88;;;1.00;;
59052;SDS011;44843;44.728;10.396;2022-07-01T04:33:17;2.42;;;1.40;;
59052;SDS011;44843;44.728;10.396;2022-07-01T04:35:42;1.67;;;1.27;;
59052;SDS011;44843;44.728;10.396;2022-07-01T04:38:08;2.05;;;1.20;;
59052;SDS011;44843;44.728;10.396;2022-07-01T04:40:34;1.70;;;1.25;;
59052;SDS011;44843;44.728;10.396;2022-07-01T04:42:59;2.30;;;1.17;;
59052;SDS011;44843;44.728;10.396;2022-07-01T04:45:24;3.83;;;1.13;;
59052;SDS011;44843;44.728;10.396;2022-07-01T04:47:50;1.88;;;1.02;;
59052;SDS011;44843;44.728;10.396;2022-07-01T04:50:15;1.20;;;0.90;;
59052;SDS011;44843;44.728;10.396;2022-07-01T04:52:40;2.22;;;1.15;;
59052;SDS011;44843;44.728;10.396;2022-07-01T04:55:06;0.90;;;0.90;;
59052;SDS011;44843;44.728;10.396;2022-07-01T04:57:32;2.05;;;0.90;;
59052;SDS011;44843;44.728;10.396;2022-07-01T04:59:57;3.10;;;1.05;;
59052;SDS011;44843;44.728;10.396;2022-07-01T05:02:22;3.75;;;1.05;;
59052;SDS011;44843;44.728;10.396;2022-07-01T05:04:48;4.20;;;0.93;;
59052;SDS011;44843;44.728;10.396;2022-07-01T05:07:13;5.07;;;0.90;;
59052;SDS011;44843;44.728;10.396;2022-07-01T05:09:54;1.10;;;0.90;;
59052;SDS011;44843;44.728;10.396;2022-07-01T05:12:21;1.10;;;0.98;;
59052;SDS011;44843;44.728;10.396;2022-07-01T05:14:47;2.92;;;0.90;;
59052;SDS011;44843;44.728;10.396;2022-07-01T05:17:13;4.32;;;0.77;;
59052;SDS011;44843;44.728;10.396;2022-07-01T05:19:39;1.15;;;0.80;;
59052;SDS011;44843;44.728;10.396;2022-07-01T05:22:23;0.95;;;0.75;;
59052;SDS011;44843;44.728;10.396;2022-07-01T05:24:48;3.22;;;0.95;;
59052;SDS011;44843;44.728;10.396;2022-07-01T05:27:13;5.63;;;0.88;;
59052;SDS011;44843;44.728;10.396;2022-07-01T05:29:39;4.07;;;1.00;;
59052;SDS011;44843;44.728;10.396;2022-07-01T05:32:04;2.08;;;0.70;;
59052;SDS011;44843;44.728;10.396;2022-07-01T05:34:30;2.97;;;0.80;;
59052;SDS011;44843;44.728;10.396;2022-07-01T05:36:56;3.55;;;1.38;;
59052;SDS011;44843;44.728;10.396;2022-07-01T05:39:22;1.95;;;1.00;;
59052;SDS011;44843;44.728;10.396;2022-07-01T05:41:47;3.55;;;0.95;;
59052;SDS011;44843;44.728;10.396;2022-07-01T05:44:13;1.67;;;0.90;;
59052;SDS011;44843;44.728;10.396;2022-07-01T05:46:38;7.35;;;1.30;;
59052;SDS011;44843;44.728;10.396;2022-07-01T05:49:04;1.15;;;0.88;;
59052;SDS011;44843;44.728;10.396;2022-07-01T05:51:30;2.78;;;1.45;;
59052;SDS011;44843;44.728;10.396;2022-07-01T05:53:55;7.72;;;1.35;;
59052;SDS011;44843;44.728;10.396;2022-07-01T05:56:21;5.60;;;1.95;;
59052;SDS011;44843;44.728;10.396;2022-07-01T05:58:47;3.38;;;0.80;;
59052;SDS011;44843;44.728;10.396;2022-07-01T06:01:12;1.90;;;0.90;;
59052;SDS011;44843;44.728;10.396;2022-07-01T06:03:38;3.05;;;0.93;;
59052;SDS011;44843;44.728;10.396;2022-07-01T06:06:04;4.32;;;1.00;;
59052;SDS011;44843;44.728;10.396;2022-07-01T06:08:29;5.72;;;0.90;;
59052;SDS011;44843;44.728;10.396;2022-07-01T06:10:55;1.88;;;0.80;;
59052;SDS011;44843;44.728;10.396;2022-07-01T06:13:21;3.03;;;0.82;;
59052;SDS011;44843;44.728;10.396;2022-07-01T06:15:46;2.53;;;1.10;;
59052;SDS011;44843;44.728;10.396;2022-07-01T06:18:12;3.00;;;0.93;;
59052;SDS011;44843;44.728;10.396;2022-07-01T06:20:38;3.90;;;1.20;;
59052;SDS011;44843;44.728;10.396;2022-07-01T06:23:03;3.33;;;1.33;;
59052;SDS011;44843;44.728;10.396;2022-07-01T06:25:29;5.72;;;1.08;;
59052;SDS011;44843;44.728;10.396;2022-07-01T06:27:54;3.33;;;0.90;;
59052;SDS011;44843;44.728;10.396;2022-07-01T06:30:20;1.23;;;0.70;;
59052;SDS011;44843;44.728;10.396;2022-07-01T06:32:45;4.65;;;1.10;;
59052;SDS011;44843;44.728;10.396;2022-07-01T06:35:10;5.68;;;1.00;;
59052;SDS011;44843;44.728;10.396;2022-07-01T06:37:36;6.90;;;1.05;;
59052;SDS011;44843;44.728;10.396;2022-07-01T06:40:05;1.60;;;0.80;;
59052;SDS011;44843;44.728;10.396;2022-07-01T06:42:32;3.75;;;1.10;;
59052;SDS011;44843;44.728;10.396;2022-07-01T06:44:58;5.30;;;1.55;;
59052;SDS011;44843;44.728;10.396;2022-07-01T06:47:23;2.33;;;0.98;;
59052;SDS011;44843;44.728;10.396;2022-07-01T06:49:49;3.55;;;0.85;;
59052;SDS011;44843;44.728;10.396;2022-07-01T06:52:14;4.70;;;1.20;;
59052;SDS011;44843;44.728;10.396;2022-07-01T06:54:39;3.30;;;1.10;;
59052;SDS011;44843;44.728;10.396;2022-07-01T06:57:05;4.53;;;1.27;;
59052;SDS011;44843;44.728;10.396;2022-07-01T06:59:31;3.00;;;0.90;;
59052;SDS011;44843;44.728;10.396;2022-07-01T07:01:57;3.55;;;1.00;;
59052;SDS011;44843;44.728;10.396;2022-07-01T07:04:22;6.20;;;1.00;;
59052;SDS011;44843;44.728;10.396;2022-07-01T07:06:48;2.95;;;1.20;;
59052;SDS011;44843;44.728;10.396;2022-07-01T07:09:13;3.85;;;0.98;;
59052;SDS011;44843;44.728;10.396;2022-07-01T07:11:39;4.30;;;1.40;;
59052;SDS011;44843;44.728;10.396;2022-07-01T07:14:04;2.67;;;1.20;;
59052;SDS011;44843;44.728;10.396;2022-07-01T07:16:29;2.70;;;0.95;;
59052;SDS011;44843;44.728;10.396;2022-07-01T07:18:55;4.03;;;1.00;;
59052;SDS011;44843;44.728;10.396;2022-07-01T07:21:21;3.80;;;1.38;;
59052;SDS011;44843;44.728;10.396;2022-07-01T07:23:46;1.90;;;0.95;;
59052;SDS011;44843;44.728;10.396;2022-07-01T07:26:12;1.10;;;1.00;;
59052;SDS011;44843;44.728;10.396;2022-07-01T07:28:38;1.80;;;1.13;;
59052;SDS011;44843;44.728;10.396;2022-07-01T07:31:04;1.92;;;1.42;;
59052;SDS011;44843;44.728;10.396;2022-07-01T07:33:29;2.50;;;1.10;;
59052;SDS011;44843;44.728;10.396;2022-07-01T07:35:55;3.97;;;1.33;;
59052;SDS011;44843;44.728;10.396;2022-07-01T07:38:20;5.00;;;1.10;;
59052;SDS011;44843;44.728;10.396;2022-07-01T07:40:46;2.67;;;1.30;;
59052;SDS011;44843;44.728;10.396;2022-07-01T07:43:11;2.90;;;1.23;;
59052;SDS011;44843;44.728;10.396;2022-07-01T07:45:36;2.08;;;1.05;;
59052;SDS011;44843;44.728;10.396;2022-07-01T07:48:02;2.97;;;1.20;;
59052;SDS011;44843;44.728;10.396;2022-07-01T07:50:29;2.72;;;1.48;;
59052;SDS011;44843;44.728;10.396;2022-07-01T07:52:54;2.20;;;1.20;;
59052;SDS011;44843;44.728;10.396;2022-07-01T07:55:20;2.50;;;1.40;;
59052;SDS011;44843;44.728;10.396;2022-07-01T07:57:45;2.60;;;1.10;;
59052;SDS011;44843;44.728;10.396;2022-07-01T08:00:11;6.50;;;1.20;;
59052;SDS011;44843;44.728;10.396;2022-07-01T08:02:38;2.58;;;1.02;;
59052;SDS011;44843;44.728;10.396;2022-07-01T08:05:05;5.95;;;1.30;;
59052;SDS011;44843;44.728;10.396;2022-07-01T08:07:35;3.15;;;1.45;;
59052;SDS011;44843;44.728;10.396;2022-07-01T08:10:02;1.13;;;0.98;;
59052;SDS011;44843;44.728;10.396;2022-07-01T08:12:29;2.83;;;1.00;;
59052;SDS011;44843;44.728;10.396;2022-07-01T08:14:54;2.50;;;1.08;;
59052;SDS011;44843;44.728;10.396;2022-07-01T08:17:20;3.80;;;1.17;;
59052;SDS011;44843;44.728;10.396;2022-07-01T08:19:45;2.42;;;1.13;;
59052;SDS011;44843;44.728;10.396;2022-07-01T08:22:10;3.15;;;1.27;;
59052;SDS011;44843;44.728;10.396;2022-07-01T08:24:36;3.25;;;1.30;;
59052;SDS011;44843;44.728;10.396;2022-07-01T08:27:01;3.22;;;1.33;;
59052;SDS011;44843;44.728;10.396;2022-07-01T08:29:27;4.90;;;1.20;;
59052;SDS011;44843;44.728;10.396;2022-07-01T08:31:52;4.03;;;1.30;;
59052;SDS011;44843;44.728;10.396;2022-07-01T08:34:17;5.15;;;1.40;;
59052;SDS011;44843;44.728;10.396;2022-07-01T08:36:43;3.63;;;1.30;;
59052;SDS011;44843;44.728;10.396;2022-07-01T08:39:08;2.03;;;1.33;;
59052;SDS011;44843;44.728;10.396;2022-07-01T08:41:34;1.52;;;1.23;;
59052;SDS011;44843;44.728;10.396;2022-07-01T08:43:59;3.55;;;1.10;;
59052;SDS011;44843;44.728;10.396;2022-07-01T08:46:25;2.50;;;1.20;;
59052;SDS011;44843;44.728;10.396;2022-07-01T08:48:51;4.45;;;1.27;;
59052;SDS011;44843;44.728;10.396;2022-07-01T08:51:17;6.00;;;1.20;;
59052;SDS011;44843;44.728;10.396;2022-07-01T08:53:43;4.93;;;1.45;;
59052;SDS011;44843;44.728;10.396;2022-07-01T08:56:08;2.67;;;1.30;;
59052;SDS011;44843;44.728;10.396;2022-07-01T08:58:52;5.00;;;1.52;;
59052;SDS011;44843;44.728;10.396;2022-07-01T09:01:21;4.43;;;1.30;;
59052;SDS011;44843;44.728;10.396;2022-07-01T09:03:49;3.28;;;1.10;;
59052;SDS011;44843;44.728;10.396;2022-07-01T09:06:18;4.55;;;1.65;;
59052;SDS011;44843;44.728;10.396;2022-07-01T09:08:45;4.93;;;1.30;;
59052;SDS011;44843;44.728;10.396;2022-07-01T09:11:21;5.82;;;1.42;;
59052;SDS011;44843;44.728;10.396;2022-07-01T09:14:04;3.25;;;1.20;;
59052;SDS011;44843;44.728;10.396;2022-07-01T09:19:06;2.25;;;1.38;;
59052;SDS011;44843;44.728;10.396;2022-07-01T09:21:31;4.13;;;1.13;;
59052;SDS011;44843;44.728;10.396;2022-07-01T09:23:58;4.63;;;1.50;;
59052;SDS011;44843;44.728;10.396;2022-07-01T09:26:26;1.63;;;1.17;;
59052;SDS011;44843;44.728;10.396;2022-07-01T09:28:53;2.70;;;1.48;;
59052;SDS011;44843;44.728;10.396;2022-07-01T09:31:20;5.13;;;1.80;;
59052;SDS011;44843;44.728;10.396;2022-07-01T09:33:47;3.60;;;1.42;;
59052;SDS011;44843;44.728;10.396;2022-07-01T09:36:27;6.80;;;1.63;;
59052;SDS011;44843;44.728;10.396;2022-07-01T09:38:53;3.05;;;1.25;;
59052;SDS011;44843;44.728;10.396;2022-07-01T09:41:18;5.88;;;1.40;;
59052;SDS011;44843;44.728;10.396;2022-07-01T09:43:48;2.88;;;1.90;;
59052;SDS011;44843;44.728;10.396;2022-07-01T09:46:14;4.38;;;2.50;;
59052;SDS011;44843;44.728;10.396;2022-07-01T09:51:05;6.88;;;1.95;;
59052;SDS011;44843;44.728;10.396;2022-07-01T09:53:32;3.72;;;1.60;;
59052;SDS011;44843;44.728;10.396;2022-07-01T09:55:58;2.35;;;1.70;;
59052;SDS011;44843;44.728;10.396;2022-07-01T09:58:24;4.63;;;2.10;;
59052;SDS011;44843;44.728;10.396;2022-07-01T10:00:51;4.50;;;1.77;;
59052;SDS011;44843;44.728;10.396;2022-07-01T10:03:18;3.55;;;2.20;;
59052;SDS011;44843;44.728;10.396;2022-07-01T10:05:48;3.05;;;1.60;;
59052;SDS011;44843;44.728;10.396;2022-07-01T10:11:25;4.53;;;1.48;;
59052;SDS011;44843;44.728;10.396;2022-07-01T10:14:04;4.25;;;1.88;;
59052;SDS011;44843;44.728;10.396;2022-07-01T10:16:31;3.95;;;1.65;;
59052;SDS011;44843;44.728;10.396;2022-07-01T10:18:58;5.90;;;1.75;;
59052;SDS011;44843;44.728;10.396;2022-07-01T10:21:27;3.20;;;1.40;;
59052;SDS011;44843;44.728;10.396;2022-07-01T10:24:10;2.03;;;1.55;;
59052;SDS011;44843;44.728;10.396;2022-07-01T10:26:41;6.05;;;1.50;;
59052;SDS011;44843;44.728;10.396;2022-07-01T10:29:26;4.22;;;1.60;;
59052;SDS011;44843;44.728;10.396;2022-07-01T10:31:52;2.70;;;1.77;;
59052;SDS011;44843;44.728;10.396;2022-07-01T10:34:18;4.20;;;1.45;;
59052;SDS011;44843;44.728;10.396;2022-07-01T10:36:45;3.38;;;1.90;;
59052;SDS011;44843;44.728;10.396;2022-07-01T10:39:26;3.72;;;1.70;;
59052;SDS011;44843;44.728;10.396;2022-07-01T10:44:18;3.13;;;1.50;;
59052;SDS011;44843;44.728;10.396;2022-07-01T10:46:45;6.15;;;2.10;;
59052;SDS011;44843;44.728;10.396;2022-07-01T10:59:40;3.88;;;1.63;;
59052;SDS011;44843;44.728;10.396;2022-07-01T11:02:11;3.55;;;1.70;;
59052;SDS011;44843;44.728;10.396;2022-07-01T11:04:37;5.95;;;1.88;;
59052;SDS011;44843;44.728;10.396;2022-07-01T11:07:03;7.10;;;1.73;;
59052;SDS011;44843;44.728;10.396;2022-07-01T11:09:29;4.38;;;1.75;;
59052;SDS011;44843;44.728;10.396;2022-07-01T11:11:54;4.30;;;1.85;;
59052;SDS011;44843;44.728;10.396;2022-07-01T11:14:20;5.72;;;1.55;;
59052;SDS011;44843;44.728;10.396;2022-07-01T11:16:45;3.90;;;1.70;;
59052;SDS011;44843;44.728;10.396;2022-07-01T11:19:11;3.92;;;1.77;;
59052;SDS011;44843;44.728;10.396;2022-07-01T11:21:36;2.35;;;1.45;;
59052;SDS011;44843;44.728;10.396;2022-07-01T11:24:02;2.22;;;1.48;;
59052;SDS011;44843;44.728;10.396;2022-07-01T11:26:27;3.55;;;1.80;;
59052;SDS011;44843;44.728;10.396;2022-07-01T11:28:53;2.80;;;2.10;;
59052;SDS011;44843;44.728;10.396;2022-07-01T11:31:31;3.10;;;1.40;;
59052;SDS011;44843;44.728;10.396;2022-07-01T11:33:57;4.45;;;1.60;;
59052;SDS011;44843;44.728;10.396;2022-07-01T11:36:23;3.58;;;1.92;;
59052;SDS011;44843;44.728;10.396;2022-07-01T11:39:07;4.38;;;1.73;;
59052;SDS011;44843;44.728;10.396;2022-07-01T11:44:29;5.47;;;1.92;;
59052;SDS011;44843;44.728;10.396;2022-07-01T11:46:59;3.70;;;1.40;;
59052;SDS011;44843;44.728;10.396;2022-07-01T11:49:29;3.42;;;1.67;;
59052;SDS011;44843;44.728;10.396;2022-07-01T11:52:04;6.10;;;2.10;;
59052;SDS011;44843;44.728;10.396;2022-07-01T11:54:33;2.47;;;1.70;;
59052;SDS011;44843;44.728;10.396;2022-07-01T11:57:08;6.97;;;1.67;;
59052;SDS011;44843;44.728;10.396;2022-07-01T11:59:34;7.95;;;1.90;;
59052;SDS011;44843;44.728;10.396;2022-07-01T12:02:03;5.97;;;1.83;;
59052;SDS011;44843;44.728;10.396;2022-07-01T12:04:29;7.38;;;1.75;;
59052;SDS011;44843;44.728;10.396;2022-07-01T12:06:55;3.45;;;1.40;;
59052;SDS011;44843;44.728;10.396;2022-07-01T12:09:21;4.68;;;1.85;;
59052;SDS011;44843;44.728;10.396;2022-07-01T12:11:49;3.97;;;1.60;;
59052;SDS011;44843;44.728;10.396;2022-07-01T12:14:23;2.53;;;1.50;;
59052;SDS011;44843;44.728;10.396;2022-07-01T12:16:55;4.65;;;1.70;;
59052;SDS011;44843;44.728;10.396;2022-07-01T12:19:38;4.32;;;1.95;;
59052;SDS011;44843;44.728;10.396;2022-07-01T12:22:05;4.80;;;1.65;;
59052;SDS011;44843;44.728;10.396;2022-07-01T12:24:33;2.55;;;1.70;;
59052;SDS011;44843;44.728;10.396;2022-07-01T12:29:32;3.72;;;1.98;;
59052;SDS011;44843;44.728;10.396;2022-07-01T12:32:22;2.95;;;1.60;;
59052;SDS011;44843;44.728;10.396;2022-07-01T12:37:16;2.95;;;1.77;;
59052;SDS011;44843;44.728;10.396;2022-07-01T12:39:47;3.78;;;1.63;;
59052;SDS011;44843;44.728;10.396;2022-07-01T12:45:00;5.40;;;1.95;;
59052;SDS011;44843;44.728;10.396;2022-07-01T12:47:34;2.22;;;1.52;;
59052;SDS011;44843;44.728;10.396;2022-07-01T12:50:08;6.68;;;1.52;;
59052;SDS011;44843;44.728;10.396;2022-07-01T12:52:33;2.58;;;2.00;;
59052;SDS011;44843;44.728;10.396;2022-07-01T12:54:59;2.95;;;1.42;;
59052;SDS011;44843;44.728;10.396;2022-07-01T12:57:31;4.13;;;1.70;;
59052;SDS011;44843;44.728;10.396;2022-07-01T12:59:57;2.72;;;1.27;;
59052;SDS011;44843;44.728;10.396;2022-07-01T13:02:23;5.82;;;1.55;;
59052;SDS011;44843;44.728;10.396;2022-07-01T13:04:49;2.80;;;1.60;;
59052;SDS011;44843;44.728;10.396;2022-07-01T13:07:14;3.33;;;1.45;;
59052;SDS011;44843;44.728;10.396;2022-07-01T13:09:40;3.40;;;1.55;;
59052;SDS011;44843;44.728;10.396;2022-07-01T13:12:05;5.25;;;1.70;;
59052;SDS011;44843;44.728;10.396;2022-07-01T13:14:31;5.00;;;1.30;;
59052;SDS011;44843;44.728;10.396;2022-07-01T13:16:57;3.03;;;1.48;;
59052;SDS011;44843;44.728;10.396;2022-07-01T13:19:22;2.38;;;1.25;;
59052;SDS011;44843;44.728;10.396;2022-07-01T13:21:48;2.70;;;1.30;;
59052;SDS011;44843;44.728;10.396;2022-07-01T13:24:13;5.72;;;1.40;;
59052;SDS011;44843;44.728;10.396;2022-07-01T13:26:39;3.42;;;1.60;;
59052;SDS011;44843;44.728;10.396;2022-07-01T13:29:04;11.02;;;1.60;;
59052;SDS011;44843;44.728;10.396;2022-07-01T13:31:30;3.03;;;1.27;;
59052;SDS011;44843;44.728;10.396;2022-07-01T13:33:55;3.85;;;1.60;;
59052;SDS011;44843;44.728;10.396;2022-07-01T13:36:21;4.70;;;1.60;;
59052;SDS011;44843;44.728;10.396;2022-07-01T13:38:46;3.97;;;1.48;;
59052;SDS011;44843;44.728;10.396;2022-07-01T13:41:13;6.00;;;1.52;;
59052;SDS011;44843;44.728;10.396;2022-07-01T13:43:39;7.13;;;1.40;;
59052;SDS011;44843;44.728;10.396;2022-07-01T13:46:05;4.53;;;1.90;;
59052;SDS011;44843;44.728;10.396;2022-07-01T13:48:30;3.08;;;1.42;;
59052;SDS011;44843;44.728;10.396;2022-07-01T13:50:56;4.80;;;1.60;;
59052;SDS011;44843;44.728;10.396;2022-07-01T13:53:21;2.72;;;1.45;;
59052;SDS011;44843;44.728;10.396;2022-07-01T13:55:46;5.05;;;1.70;;
59052;SDS011;44843;44.728;10.396;2022-07-01T13:58:12;4.28;;;1.52;;
59052;SDS011;44843;44.728;10.396;2022-07-01T14:00:38;7.47;;;1.85;;
59052;SDS011;44843;44.728;10.396;2022-07-01T14:03:04;5.10;;;1.67;;
59052;SDS011;44843;44.728;10.396;2022-07-01T14:05:29;8.20;;;1.90;;
59052;SDS011;44843;44.728;10.396;2022-07-01T14:07:54;7.28;;;1.95;;
59052;SDS011;44843;44.728;10.396;2022-07-01T14:10:20;6.20;;;1.67;;
59052;SDS011;44843;44.728;10.396;2022-07-01T14:12:45;4.47;;;1.92;;
59052;SDS011;44843;44.728;10.396;2022-07-01T14:15:11;6.20;;;1.90;;
59052;SDS011;44843;44.728;10.396;2022-07-01T14:17:36;3.45;;;1.63;;
59052;SDS011;44843;44.728;10.396;2022-07-01T14:20:02;5.80;;;1.50;;
59052;SDS011;44843;44.728;10.396;2022-07-01T14:22:28;7.28;;;1.77;;
59052;SDS011;44843;44.728;10.396;2022-07-01T14:24:53;4.60;;;1.70;;
59052;SDS011;44843;44.728;10.396;2022-07-01T14:27:19;6.78;;;1.67;;
59052;SDS011;44843;44.728;10.396;2022-07-01T14:29:44;3.83;;;1.77;;
59052;SDS011;44843;44.728;10.396;2022-07-01T14:32:10;2.88;;;1.52;;
59052;SDS011;44843;44.728;10.396;2022-07-01T14:34:35;14.23;;;1.80;;
59052;SDS011;44843;44.728;10.396;2022-07-01T14:37:00;6.90;;;1.92;;
59052;SDS011;44843;44.728;10.396;2022-07-01T14:39:26;2.72;;;1.67;;
59052;SDS011;44843;44.728;10.396;2022-07-01T14:41:51;5.05;;;1.70;;
59052;SDS011;44843;44.728;10.396;2022-07-01T14:44:18;2.65;;;1.27;;
59052;SDS011;44843;44.728;10.396;2022-07-01T14:46:43;4.72;;;1.63;;
59052;SDS011;44843;44.728;10.396;2022-07-01T14:49:09;4.30;;;1.45;;
59052;SDS011;44843;44.728;10.396;2022-07-01T14:51:34;5.15;;;1.60;;
59052;SDS011;44843;44.728;10.396;2022-07-01T14:54:00;3.90;;;1.73;;
59052;SDS011;44843;44.728;10.396;2022-07-01T14:56:25;5.03;;;1.60;;
59052;SDS011;44843;44.728;10.396;2022-07-01T14:58:51;2.97;;;1.23;;
59052;SDS011;44843;44.728;10.396;2022-07-01T15:01:17;5.07;;;2.03;;
59052;SDS011;44843;44.728;10.396;2022-07-01T15:03:43;4.40;;;1.50;;
59052;SDS011;44843;44.728;10.396;2022-07-01T15:06:08;3.80;;;1.73;;
59052;SDS011;44843;44.728;10.396;2022-07-01T15:08:34;3.25;;;1.55;;